createdAt,value
2022-12-08T00:05:12.165Z,3.97
2022-12-08T00:10:46.607Z,3.96
2022-12-08T00:15:35.484Z,3.84
2022-12-08T00:20:37.052Z,3.79
2022-12-08T00:25:38.843Z,3.60
2022-12-08T00:30:40.921Z,3.56
2022-12-08T00:35:43.430Z,3.49
2022-12-08T00:40:45.815Z,3.45
2022-12-08T00:45:47.497Z,3.30
2022-12-08T00:50:49.116Z,3.25
2022-12-08T00:55:50.937Z,3.26
2022-12-08T01:00:52.596Z,3.25
2022-12-08T01:05:54.692Z,3.11
2022-12-08T01:10:56.395Z,2.89
2022-12-08T01:15:57.980Z,2.81
2022-12-08T01:21:04.263Z,2.78
2022-12-08T01:26:06.976Z,2.75
2022-12-08T01:31:16.631Z,2.72
2022-12-08T01:36:25.631Z,2.53
2022-12-08T01:41:28.721Z,2.49
2022-12-08T01:46:31.488Z,2.47
2022-12-08T01:51:36.105Z,2.36
2022-12-08T01:56:41.490Z,2.06
2022-12-08T02:01:44.280Z,2.05
2022-12-08T02:06:46.776Z,2.07
2022-12-08T02:11:49.073Z,2.09
2022-12-08T02:17:12.913Z,2.08
2022-12-08T02:22:50.074Z,2.07
2022-12-08T02:27:51.745Z,2.02
2022-12-08T02:33:08.769Z,2.08
2022-12-08T02:38:10.908Z,2.10
2022-12-08T02:43:17.461Z,2.05
2022-12-08T02:48:19.076Z,2.06
2022-12-08T02:53:20.745Z,2.03
2022-12-08T02:58:22.304Z,2.01
2022-12-08T03:03:28.927Z,1.96
2022-12-08T03:08:42.136Z,1.84
2022-12-08T03:13:46.403Z,1.82
2022-12-08T03:18:51.210Z,1.90
2022-12-08T03:23:55.724Z,1.92
2022-12-08T03:28:57.736Z,1.95
2022-12-08T03:33:59.914Z,1.89
2022-12-08T03:39:02.124Z,1.92
2022-12-08T03:44:03.953Z,1.92
2022-12-08T03:49:05.724Z,1.91
2022-12-08T03:54:07.639Z,1.62
2022-12-08T03:59:10.318Z,1.68
2022-12-08T04:04:12.061Z,1.73
2022-12-08T04:09:13.792Z,1.82
2022-12-08T04:14:15.430Z,1.92
2022-12-08T04:19:17.044Z,1.96
2022-12-08T04:24:18.677Z,2.05
2022-12-08T04:29:20.417Z,2.11
2022-12-08T04:34:22.016Z,2.17
2022-12-08T04:39:23.713Z,2.23
2022-12-08T04:44:25.299Z,2.11
2022-12-08T04:49:27.406Z,2.12
2022-12-08T04:54:29.002Z,2.19
2022-12-08T04:59:30.956Z,2.30
2022-12-08T05:04:32.629Z,2.33
2022-12-08T05:09:34.361Z,2.40
2022-12-08T05:14:35.962Z,2.39
2022-12-08T05:19:37.614Z,2.39
2022-12-08T05:24:43.997Z,2.40
2022-12-08T05:29:48.925Z,2.37
2022-12-08T05:34:51.339Z,2.28
2022-12-08T05:39:52.996Z,2.31
2022-12-08T05:44:54.583Z,2.22
2022-12-08T05:49:56.353Z,2.18
2022-12-08T05:54:57.925Z,2.22
2022-12-08T05:59:59.584Z,2.20
2022-12-08T06:05:01.538Z,2.09
2022-12-08T06:10:03.966Z,2.04
2022-12-08T06:15:06.141Z,1.97
2022-12-08T06:20:08.151Z,2.63
2022-12-08T06:25:10.390Z,3.19
2022-12-08T06:30:12.235Z,3.46
2022-12-08T06:35:13.764Z,3.53
2022-12-08T06:40:15.419Z,3.56
2022-12-08T06:45:17.845Z,3.59
2022-12-08T06:50:19.549Z,3.22
2022-12-08T06:55:50.861Z,2.79
2022-12-08T07:00:43.280Z,2.48
2022-12-08T07:05:45.064Z,2.22
2022-12-08T07:10:46.683Z,2.00
2022-12-08T07:15:48.277Z,1.73
2022-12-08T07:20:49.925Z,1.53
2022-12-08T07:25:51.568Z,1.28
2022-12-08T07:30:53.201Z,1.29
2022-12-08T07:35:58.470Z,1.39
2022-12-08T07:41:01.335Z,1.41
2022-12-08T07:46:03.010Z,1.35
2022-12-08T07:51:05.187Z,1.26
2022-12-08T07:56:07.297Z,1.33
2022-12-08T08:01:18.761Z,1.38
2022-12-08T08:06:20.409Z,1.29
2022-12-08T08:11:22.239Z,1.30
2022-12-08T08:16:24.039Z,1.37
2022-12-08T08:26:47.456Z,1.48
2022-12-08T08:31:49.068Z,1.43
2022-12-08T08:36:50.891Z,1.29
2022-12-08T08:41:52.696Z,1.41
2022-12-08T08:46:54.458Z,1.55
2022-12-08T08:51:56.102Z,1.72
2022-12-08T08:56:58.582Z,1.88
2022-12-08T09:02:00.356Z,2.02
2022-12-08T09:07:02.130Z,2.04
2022-12-08T09:12:03.970Z,2.08
2022-12-08T09:17:08.429Z,2.09
2022-12-08T09:22:10.007Z,1.98
2022-12-08T09:27:11.935Z,2.03
2022-12-08T09:32:13.598Z,2.07
2022-12-08T09:37:15.197Z,1.97
2022-12-08T09:42:21.358Z,1.85
2022-12-08T09:47:32.101Z,1.87
2022-12-08T09:52:54.219Z,1.89
2022-12-08T09:58:01.726Z,1.99
2022-12-08T10:03:03.350Z,2.24
2022-12-08T10:08:28.206Z,2.33
2022-12-08T10:13:39.761Z,2.22
2022-12-08T10:18:41.802Z,2.41
2022-12-08T10:23:45.624Z,2.57
2022-12-08T10:28:47.327Z,2.64
2022-12-08T10:33:53.539Z,2.65
2022-12-08T10:38:55.793Z,2.66
2022-12-08T10:44:01.676Z,2.73
2022-12-08T10:49:03.239Z,2.85
2022-12-08T10:54:08.530Z,2.87
2022-12-08T10:59:17.483Z,2.86
2022-12-08T11:04:20.595Z,3.04
2022-12-08T11:09:51.569Z,3.08
2022-12-08T11:15:01.374Z,3.26
2022-12-08T11:21:49.175Z,3.37
2022-12-08T11:26:34.295Z,3.38
2022-12-08T11:31:40.939Z,3.41
2022-12-08T11:36:42.665Z,3.38
2022-12-08T11:41:45.967Z,3.52
2022-12-08T11:46:56.944Z,3.56
2022-12-08T11:52:17.213Z,3.63
2022-12-08T11:57:21.711Z,3.76
2022-12-08T12:02:23.308Z,3.81
2022-12-08T12:07:33.288Z,3.86
2022-12-08T12:12:39.931Z,3.84
2022-12-08T12:17:47.809Z,3.74
2022-12-08T12:22:55.553Z,3.74
2022-12-08T12:28:00.467Z,3.74
2022-12-08T12:33:02.262Z,3.76
2022-12-08T12:38:26.309Z,3.77
2022-12-08T12:43:30.103Z,3.54
2022-12-08T12:48:31.810Z,3.54
2022-12-08T12:53:36.228Z,3.58
2022-12-08T12:58:38.578Z,3.68
2022-12-08T13:03:41.398Z,3.62
2022-12-08T13:08:51.116Z,3.66
2022-12-08T13:14:01.240Z,3.69
2022-12-08T13:19:11.720Z,3.63
2022-12-08T13:24:19.852Z,3.61
2022-12-08T13:29:25.375Z,3.60
2022-12-08T13:34:41.906Z,3.53
2022-12-08T13:39:46.672Z,3.49
2022-12-08T13:51:23.652Z,3.61
2022-12-08T14:01:15.884Z,3.73
2022-12-08T14:06:19.336Z,3.75
2022-12-08T14:11:33.565Z,3.81
2022-12-08T14:16:42.622Z,3.85
2022-12-08T14:21:48.254Z,3.96
2022-12-08T14:26:51.984Z,3.96
2022-12-08T14:31:53.726Z,4.06
2022-12-08T14:36:55.597Z,4.07
2022-12-08T14:42:00.483Z,4.09
2022-12-08T14:47:05.728Z,4.11
2022-12-08T14:52:11.544Z,4.13
2022-12-08T14:57:14.338Z,4.14
2022-12-08T15:02:15.939Z,4.07
2022-12-08T15:07:18.866Z,4.01
2022-12-08T15:12:26.795Z,4.07
2022-12-08T15:17:31.610Z,4.07
2022-12-08T15:22:33.495Z,4.02
2022-12-08T15:27:46.879Z,3.96
2022-12-08T15:32:52.708Z,3.89
2022-12-08T15:37:54.318Z,3.79
2022-12-08T15:42:56.121Z,3.70
2022-12-08T15:47:57.682Z,3.61
2022-12-08T15:52:59.456Z,3.53
2022-12-08T16:08:56.055Z,3.38
2022-12-08T16:14:41.985Z,3.34
2022-12-08T16:19:29.256Z,3.33
2022-12-08T16:24:30.863Z,3.36
2022-12-08T16:29:32.417Z,3.35
2022-12-08T16:34:34.065Z,3.26
2022-12-08T16:39:38.739Z,3.10
2022-12-08T16:44:42.640Z,3.08
2022-12-08T16:49:44.333Z,3.09
2022-12-08T16:54:46.061Z,3.13
2022-12-08T16:59:47.687Z,3.11
2022-12-08T17:04:49.277Z,3.12
2022-12-08T17:09:50.987Z,3.07
2022-12-08T17:14:53.413Z,2.97
2022-12-08T17:19:55.006Z,2.94
2022-12-08T17:24:56.637Z,3.00
2022-12-08T17:29:58.271Z,3.06
2022-12-08T17:34:59.992Z,3.11
2022-12-08T17:40:01.730Z,3.03
2022-12-08T17:45:04.097Z,2.98
2022-12-08T17:50:06.687Z,3.03
2022-12-08T17:55:09.853Z,3.02
2022-12-08T18:00:11.873Z,3.07
2022-12-08T18:05:13.615Z,3.10
2022-12-08T18:10:15.738Z,3.08
2022-12-08T18:15:19.328Z,3.03
2022-12-08T18:20:20.929Z,2.88
2022-12-08T18:25:22.557Z,2.90
2022-12-08T18:30:24.226Z,2.91
2022-12-08T18:35:28.725Z,2.86
2022-12-08T18:40:30.845Z,2.74
2022-12-08T18:45:32.716Z,2.72
2022-12-08T18:50:34.377Z,2.75
2022-12-08T18:55:37.088Z,2.83
2022-12-08T19:00:39.268Z,2.88
2022-12-08T19:05:40.939Z,2.90
2022-12-08T19:10:42.822Z,2.90
2022-12-08T19:15:44.448Z,2.84
2022-12-08T19:20:46.107Z,2.71
2022-12-08T19:25:47.755Z,2.76
2022-12-08T19:30:49.478Z,2.86
2022-12-08T19:35:52.877Z,2.97
2022-12-08T19:41:27.145Z,2.88
2022-12-08T19:46:29.072Z,2.94
2022-12-08T19:51:30.815Z,2.89
2022-12-08T19:56:32.448Z,2.94
2022-12-08T20:01:34.116Z,2.85
2022-12-08T20:07:51.497Z,2.89
2022-12-08T20:13:13.112Z,2.84
2022-12-08T20:18:15.105Z,2.83
2022-12-08T20:23:16.959Z,2.77
2022-12-08T20:28:19.143Z,2.49
2022-12-08T20:33:20.830Z,2.46
2022-12-08T20:38:22.464Z,2.52
2022-12-08T20:43:24.353Z,2.55
2022-12-08T20:48:25.992Z,2.48
2022-12-08T20:53:27.683Z,2.51
2022-12-08T20:58:29.541Z,2.50
2022-12-08T21:03:31.249Z,2.51
2022-12-08T21:08:33.198Z,2.35
2022-12-08T21:13:37.006Z,2.30
2022-12-08T21:18:39.862Z,2.27
2022-12-08T21:23:42.407Z,2.31
2022-12-08T21:28:44.433Z,2.42
2022-12-08T21:33:46.212Z,2.39
2022-12-08T21:38:48.674Z,2.43
2022-12-08T21:43:50.641Z,2.56
2022-12-08T21:48:52.469Z,2.62
2022-12-08T21:53:55.079Z,2.59
2022-12-08T21:58:57.111Z,2.54
2022-12-08T22:03:58.885Z,2.59
2022-12-08T22:09:00.742Z,2.57
2022-12-08T22:14:02.399Z,2.60
2022-12-08T22:19:04.078Z,2.65
2022-12-08T22:24:06.215Z,2.71
2022-12-08T22:29:08.549Z,2.83
2022-12-08T22:34:10.336Z,2.83
2022-12-08T22:39:12.396Z,2.82
2022-12-08T22:44:16.363Z,2.80
2022-12-08T22:49:18.178Z,2.80
2022-12-08T22:54:20.008Z,2.69
2022-12-08T22:59:21.929Z,2.73
2022-12-08T23:04:23.845Z,2.62
2022-12-08T23:09:25.638Z,2.60
2022-12-08T23:14:27.714Z,2.58
2022-12-08T23:19:29.256Z,2.44
2022-12-08T23:24:31.267Z,2.48
2022-12-08T23:29:32.925Z,2.55
2022-12-08T23:34:34.517Z,2.45
2022-12-08T23:39:36.197Z,2.46
2022-12-08T23:44:37.819Z,2.44
2022-12-08T23:49:39.840Z,2.27
2022-12-08T23:54:41.496Z,2.34
2022-12-08T23:59:43.144Z,2.33
